Time;durP1;ratioP1;P1;durP2;ratioP2;P2;SDS_P1;SDS_P2;PMS_P1;PMS_P2;Temp;Humidity;BMP_temperature;BMP_pressure;BME280_temperature;BME280_humidity;BME280_pressure;Samples;Min_cycle;Max_cycle;Signal;HPM_P1;HPM_P2
2023/01/04 00:01:44;;;;;;;13.65;9.15;;;;;;;4.48;88.52;99377.09;4976666;28;20047;-81
2023/01/04 00:04:09;;;;;;;12.32;8.57;;;;;;;4.43;88.37;99373.25;4975993;28;20074;-81
2023/01/04 00:06:35;;;;;;;14.80;9.65;;;;;;;4.44;88.56;99374.91;4977713;28;20034;-81
2023/01/04 00:09:00;;;;;;;17.30;9.38;;;;;;;4.47;88.47;99370.25;4979589;28;20655;-80
2023/01/04 00:11:26;;;;;;;13.90;9.20;;;;;;;4.46;88.22;99371.22;4981014;28;20382;-81
2023/01/04 00:13:57;;;;;;;14.07;9.23;;;;;;;4.48;88.33;99366.72;4982765;28;20042;-81
2023/01/04 00:16:25;;;;;;;15.68;9.60;;;;;;;4.46;88.31;99381.59;4981089;28;20094;-81
2023/01/04 00:18:53;;;;;;;14.10;9.65;;;;;;;4.43;88.31;99374.06;4982460;28;20038;-81
2023/01/04 00:21:23;;;;;;;14.45;9.32;;;;;;;4.37;88.31;99373.75;4981813;28;20479;-81
2023/01/04 00:23:53;;;;;;;12.57;8.73;;;;;;;4.38;88.52;99376.25;4979511;28;20035;-81
2023/01/04 00:26:28;;;;;;;14.82;10.48;;;;;;;4.38;88.34;99378.84;4979836;28;20050;-81
2023/01/04 00:29:06;;;;;;;17.58;9.75;;;;;;;4.36;88.42;99375.53;4978507;28;20442;-81
2023/01/04 00:31:33;;;;;;;17.25;9.95;;;;;;;4.38;88.50;99376.25;4979659;28;20037;-81
2023/01/04 00:34:02;;;;;;;13.73;9.32;;;;;;;4.38;88.19;99360.66;4975975;28;20065;-81
2023/01/04 00:36:28;;;;;;;16.92;9.60;;;;;;;4.28;88.50;99350.22;4978341;28;20050;-81
2023/01/04 00:39:06;;;;;;;17.38;10.15;;;;;;;4.27;88.45;99358.13;4980333;28;20086;-80
2023/01/04 00:41:48;;;;;;;16.33;9.77;;;;;;;4.32;88.46;99357.72;4976930;28;20521;-80
2023/01/04 00:44:14;;;;;;;16.75;9.80;;;;;;;4.27;88.34;99348.56;4977895;28;20074;-81
2023/01/04 00:46:41;;;;;;;16.13;10.45;;;;;;;4.25;88.45;99339.25;4978360;28;20077;-81
2023/01/04 00:49:10;;;;;;;15.77;10.23;;;;;;;4.22;88.50;99336.91;4977246;28;20030;-81
2023/01/04 00:51:38;;;;;;;17.02;10.32;;;;;;;4.15;88.82;99322.81;4975856;28;20038;-81
2023/01/04 00:54:09;;;;;;;19.90;10.65;;;;;;;4.09;88.78;99329.34;4977398;28;20040;-81
2023/01/04 00:56:35;;;;;;;15.77;10.13;;;;;;;4.02;89.30;99329.03;4976782;28;20565;-81
2023/01/04 00:59:03;;;;;;;16.33;10.13;;;;;;;4.05;89.41;99327.13;4977340;28;20117;-81
2023/01/04 01:01:31;;;;;;;17.35;10.48;;;;;;;4.06;89.24;99328.75;4974060;28;20086;-81
2023/01/04 01:04:00;;;;;;;16.48;10.15;;;;;;;4.03;89.61;99328.06;4975945;28;20098;-81
2023/01/04 01:06:28;;;;;;;17.33;10.55;;;;;;;4.07;89.52;99327.81;4990492;28;20038;-81
2023/01/04 01:08:54;;;;;;;16.33;10.23;;;;;;;4.05;89.48;99324.53;4981680;28;20038;-81
2023/01/04 01:11:21;;;;;;;17.88;9.63;;;;;;;4.01;89.24;99309.19;4981853;28;20146;-80
2023/01/04 01:13:47;;;;;;;17.63;9.77;;;;;;;3.99;89.02;99320.66;4985060;28;20093;-81
2023/01/04 01:16:17;;;;;;;19.33;11.15;;;;;;;3.94;89.23;99321.03;4980280;28;20053;-81
2023/01/04 01:18:44;;;;;;;15.13;10.00;;;;;;;3.82;89.50;99329.84;4984480;28;20037;-81
2023/01/04 01:21:13;;;;;;;18.83;11.35;;;;;;;3.79;90.71;99327.50;4982259;28;20118;-81
2023/01/04 01:23:40;;;;;;;19.80;10.55;;;;;;;3.76;90.70;99322.56;4984258;28;20031;-81
2023/01/04 01:26:09;;;;;;;19.25;11.02;;;;;;;3.81;91.16;99330.78;4985596;28;20038;-81
2023/01/04 01:28:35;;;;;;;17.75;10.75;;;;;;;3.82;91.12;99324.66;4980867;28;20046;-81
2023/01/04 01:31:06;;;;;;;19.20;12.02;;;;;;;3.88;91.25;99324.16;4983138;28;20066;-80
2023/01/04 01:33:32;;;;;;;20.13;11.68;;;;;;;3.87;91.48;99329.47;4979696;28;20070;-81
2023/01/04 01:36:02;;;;;;;20.75;11.90;;;;;;;3.92;91.32;99333.34;4983062;28;20418;-81
2023/01/04 01:38:27;;;;;;;18.90;11.80;;;;;;;3.88;91.07;99328.50;4980400;28;20050;-81
2023/01/04 01:40:53;;;;;;;18.67;11.20;;;;;;;3.80;91.16;99318.78;4980536;28;20113;-81
2023/01/04 01:43:22;;;;;;;19.23;11.65;;;;;;;3.79;91.03;99317.13;4981725;28;20647;-81
2023/01/04 01:45:57;;;;;;;18.98;10.80;;;;;;;3.79;91.13;99321.50;4981705;28;20034;-81
2023/01/04 01:48:28;;;;;;;18.05;10.82;;;;;;;3.80;90.91;99329.16;4980980;28;20450;-80
2023/01/04 01:51:02;;;;;;;19.67;11.43;;;;;;;3.75;90.84;99326.09;4979373;28;20113;-80
2023/01/04 01:53:33;;;;;;;23.17;11.73;;;;;;;3.75;90.86;99326.09;4979123;28;20685;-81
2023/01/04 01:56:00;;;;;;;17.65;10.88;;;;;;;3.71;91.02;99327.31;4978752;28;20034;-80
2023/01/04 01:58:36;;;;;;;19.23;11.35;;;;;;;3.69;91.24;99322.25;4979455;28;20041;-80
2023/01/04 02:01:02;;;;;;;19.42;11.15;;;;;;;3.68;91.17;99306.81;4977367;28;20061;-81
2023/01/04 02:03:37;;;;;;;19.05;11.48;;;;;;;3.62;91.20;99307.31;4977137;28;20118;-81
2023/01/04 02:06:07;;;;;;;18.02;10.77;;;;;;;3.56;91.35;99300.03;4982163;28;20043;-80
2023/01/04 02:08:37;;;;;;;18.77;11.70;;;;;;;3.52;91.71;99303.81;4985169;28;20490;-81
2023/01/04 02:11:04;;;;;;;19.42;11.18;;;;;;;3.49;91.64;99297.13;4984966;28;20490;-81
2023/01/04 02:16:38;;;;;;;18.67;11.55;;;;;;;3.41;92.08;99300.31;4982488;28;20185;-81
2023/01/04 02:19:32;;;;;;;20.02;11.23;;;;;;;3.39;92.00;99294.44;4982272;28;20494;-81
2023/01/04 02:22:25;;;;;;;19.73;11.18;;;;;;;3.37;92.17;99291.16;4981605;28;20027;-81
2023/01/04 02:25:43;;;;;;;17.80;11.23;;;;;;;3.33;92.34;99288.94;4982149;28;20030;-80
2023/01/04 02:29:00;;;;;;;19.92;10.88;;;;;;;3.29;92.61;99290.94;4980342;28;20030;-81
2023/01/04 02:31:38;;;;;;;18.02;10.75;;;;;;;3.26;93.41;99296.38;4982318;28;20047;-81
2023/01/04 02:34:23;;;;;;;19.70;12.35;;;;;;;3.28;93.39;99291.88;4978654;28;20038;-81
2023/01/04 02:37:02;;;;;;;22.25;10.90;;;;;;;3.30;93.68;99291.75;4979587;28;20113;-80
2023/01/04 02:39:49;;;;;;;21.42;11.70;;;;;;;3.33;93.97;99297.53;4980371;28;20068;-81
2023/01/04 02:45:43;;;;;;;26.05;11.23;;;;;;;3.28;93.90;99306.63;4979956;28;20083;-80
2023/01/04 02:50:59;;;;;;;19.55;11.68;;;;;;;3.47;93.51;99302.41;4979746;28;20105;-80
2023/01/04 02:53:28;;;;;;;21.63;11.40;;;;;;;3.45;93.28;99296.53;4978636;28;20089;-80
2023/01/04 02:56:37;;;;;;;28.67;11.93;;;;;;;3.41;93.51;99295.13;4982253;28;20122;-80
2023/01/04 02:59:36;;;;;;;24.27;11.77;;;;;;;3.41;93.74;99292.53;4977896;28;20073;-81
2023/01/04 03:08:23;;;;;;;25.02;10.80;;;;;;;3.45;93.85;99273.19;4983555;28;20039;-81
2023/01/04 03:11:02;;;;;;;19.90;10.52;;;;;;;3.31;94.04;99270.09;4979629;28;20529;-80
2023/01/04 03:13:47;;;;;;;20.27;10.98;;;;;;;3.44;94.43;99271.56;4981741;28;20034;-81
2023/01/04 03:16:21;;;;;;;16.60;9.57;;;;;;;3.47;94.39;99273.88;4982990;28;20046;-81
2023/01/04 03:18:53;;;;;;;19.75;10.80;;;;;;;3.57;94.30;99275.72;4979604;28;20062;-81
2023/01/04 03:21:25;;;;;;;20.35;11.02;;;;;;;3.62;94.02;99271.00;4982039;28;20077;-81
2023/01/04 03:35:37;;;;;;;18.50;10.30;;;;;;;3.69;93.76;99259.97;4986865;28;20044;-80
2023/01/04 03:48:53;;;;;;;16.85;8.90;;;;;;;3.60;94.13;99240.00;4991234;28;20048;-81
2023/01/04 03:51:29;;;;;;;19.47;9.07;;;;;;;3.55;94.83;99238.72;4977909;28;20047;-81
2023/01/04 03:54:04;;;;;;;18.52;10.18;;;;;;;3.55;95.35;99238.72;4981197;28;20282;-81
2023/01/04 03:56:34;;;;;;;17.40;10.10;;;;;;;3.58;95.53;99225.50;4977763;28;20038;-81
2023/01/04 03:59:00;;;;;;;17.23;9.02;;;;;;;3.50;95.65;99228.72;4978058;28;20026;-81
2023/01/04 04:01:27;;;;;;;17.83;9.38;;;;;;;3.63;95.59;99226.75;4977769;28;20078;-81
2023/01/04 04:09:23;;;;;;;16.98;9.40;;;;;;;3.81;95.36;99221.78;4981691;28;20050;-80
2023/01/04 04:11:48;;;;;;;19.08;9.48;;;;;;;3.84;95.24;99211.19;4980206;28;20031;-81
2023/01/04 04:14:14;;;;;;;19.17;10.73;;;;;;;3.79;95.29;99215.09;4979189;28;20043;-81
2023/01/04 04:16:40;;;;;;;16.90;9.35;;;;;;;3.77;95.50;99207.44;4980123;28;20039;-81
2023/01/04 04:19:05;;;;;;;18.45;10.18;;;;;;;3.83;95.91;99201.72;4979625;28;20062;-81
2023/01/04 04:21:31;;;;;;;18.20;10.27;;;;;;;3.78;96.21;99209.09;4978922;28;20030;-80
2023/01/04 04:23:56;;;;;;;17.70;10.05;;;;;;;3.83;96.48;99212.09;4978500;28;20053;-80
2023/01/04 04:26:22;;;;;;;18.05;10.02;;;;;;;3.94;96.14;99211.19;4979055;28;20026;-81
2023/01/04 04:28:49;;;;;;;17.92;10.23;;;;;;;3.87;96.01;99210.91;4979688;28;20035;-81
2023/01/04 04:31:14;;;;;;;17.27;9.50;;;;;;;3.94;96.11;99203.41;4978534;28;20039;-80
2023/01/04 04:33:40;;;;;;;16.85;9.68;;;;;;;3.91;95.99;99188.94;4976409;28;20023;-81
2023/01/04 04:36:07;;;;;;;17.13;9.98;;;;;;;3.93;96.08;99189.63;4978561;28;20526;-81
2023/01/04 04:38:34;;;;;;;17.08;10.48;;;;;;;3.98;96.26;99186.63;4979088;28;20390;-81
2023/01/04 04:43:51;;;;;;;14.05;8.18;;;;;;;3.99;96.17;99188.28;4977943;28;20019;-80
2023/01/04 04:46:16;;;;;;;17.90;9.93;;;;;;;3.99;95.81;99178.72;4978362;28;20046;-81
2023/01/04 04:48:42;;;;;;;17.85;10.57;;;;;;;3.97;95.86;99175.44;4977322;28;20092;-81
2023/01/04 04:51:07;;;;;;;17.05;8.77;;;;;;;3.95;95.73;99174.72;4977227;28;20038;-81
2023/01/04 04:53:33;;;;;;;17.60;9.70;;;;;;;3.97;95.92;99175.44;4981057;28;20050;-81
2023/01/04 04:55:58;;;;;;;19.05;10.23;;;;;;;4.02;95.94;99164.66;4980084;28;20505;-81
2023/01/04 04:58:25;;;;;;;19.60;10.60;;;;;;;3.99;96.15;99173.50;4981321;28;20125;-81
2023/01/04 05:00:50;;;;;;;19.75;11.43;;;;;;;4.00;96.28;99180.34;4981320;28;20042;-81
2023/01/04 05:03:16;;;;;;;19.20;11.00;;;;;;;4.14;96.10;99175.75;4985632;28;20034;-80
2023/01/04 05:05:41;;;;;;;18.60;9.88;;;;;;;4.07;95.98;99162.47;4984489;28;20173;-80
2023/01/04 05:08:07;;;;;;;18.45;9.95;;;;;;;4.15;96.33;99162.66;4984038;28;20031;-81
2023/01/04 05:10:33;;;;;;;17.92;9.98;;;;;;;4.06;96.26;99153.03;4985015;28;20041;-80
2023/01/04 05:12:59;;;;;;;20.23;10.32;;;;;;;4.21;96.49;99158.69;4983453;28;20374;-80
2023/01/04 05:15:34;;;;;;;17.58;10.20;;;;;;;4.26;96.10;99175.53;4984278;28;20039;-81
2023/01/04 05:17:59;;;;;;;21.38;10.18;;;;;;;4.29;95.82;99174.44;4980313;28;20072;-81
2023/01/04 05:20:25;;;;;;;19.17;10.63;;;;;;;4.31;95.46;99177.69;4983328;28;20042;-81
2023/01/04 05:22:51;;;;;;;18.90;10.05;;;;;;;4.26;95.32;99187.69;4983185;28;20041;-81
2023/01/04 05:25:17;;;;;;;17.63;10.00;;;;;;;4.33;95.35;99185.38;4982287;28;20042;-80
2023/01/04 05:27:43;;;;;;;18.88;10.48;;;;;;;4.40;95.42;99171.72;4981736;28;20042;-81
2023/01/04 05:32:56;;;;;;;20.40;11.23;;;;;;;4.39;95.26;99159.69;4980696;28;20035;-81
2023/01/04 05:35:22;;;;;;;19.52;10.63;;;;;;;4.48;95.15;99174.47;4981481;28;21085;-80
2023/01/04 05:37:47;;;;;;;18.52;9.48;;;;;;;4.42;94.98;99159.41;4979457;28;20121;-81
2023/01/04 05:40:13;;;;;;;17.10;9.75;;;;;;;4.45;94.82;99159.16;4980960;28;20124;-81
2023/01/04 05:42:41;;;;;;;17.83;9.93;;;;;;;4.44;94.74;99162.72;4979205;28;20041;-81
2023/01/04 05:45:07;;;;;;;18.25;9.85;;;;;;;4.43;94.84;99161.03;4980657;28;20043;-81
2023/01/04 05:47:33;;;;;;;18.17;9.88;;;;;;;4.47;94.72;99164.22;4980073;28;20046;-81
2023/01/04 05:49:59;;;;;;;16.08;9.48;;;;;;;4.48;94.51;99161.47;4982838;28;20038;-80
2023/01/04 05:52:25;;;;;;;18.05;10.13;;;;;;;4.48;94.62;99158.88;4979525;28;20043;-81
2023/01/04 05:54:51;;;;;;;17.55;9.63;;;;;;;4.45;94.66;99153.13;4980098;28;20035;-81
2023/01/04 05:57:16;;;;;;;18.40;9.50;;;;;;;4.40;94.81;99144.94;4980345;28;20042;-81
2023/01/04 05:59:42;;;;;;;16.60;9.77;;;;;;;4.38;95.06;99146.81;4983776;28;20418;-81
2023/01/04 06:02:22;;;;;;;18.80;9.95;;;;;;;4.39;95.00;99141.50;4982974;28;20605;-81
2023/01/04 06:04:48;;;;;;;18.98;9.20;;;;;;;4.40;95.06;99139.72;4982624;28;20039;-81
2023/01/04 06:07:15;;;;;;;17.13;8.88;;;;;;;4.42;95.11;99133.44;4982938;28;20255;-80
2023/01/04 06:09:41;;;;;;;16.42;9.27;;;;;;;4.40;95.32;99137.94;4982492;28;20088;-81
2023/01/04 06:12:07;;;;;;;16.60;9.77;;;;;;;4.38;95.47;99131.22;4983454;28;20030;-81
2023/01/04 06:14:32;;;;;;;16.20;9.20;;;;;;;4.47;95.30;99131.25;4980538;28;20049;-81
2023/01/04 06:16:58;;;;;;;15.20;8.20;;;;;;;4.39;95.45;99136.31;4981817;28;20026;-80
2023/01/04 06:19:24;;;;;;;15.32;8.85;;;;;;;4.44;95.14;99117.72;4981021;28;20137;-81
2023/01/04 06:21:50;;;;;;;17.42;9.13;;;;;;;4.46;95.14;99115.81;4981674;28;20101;-81
2023/01/04 06:24:15;;;;;;;14.18;8.55;;;;;;;4.53;95.09;99117.72;4982009;28;20035;-80
2023/01/04 06:26:41;;;;;;;14.75;8.60;;;;;;;4.53;94.82;99106.50;4981859;28;20061;-80
2023/01/04 06:29:06;;;;;;;16.35;8.55;;;;;;;4.53;94.89;99107.31;4988051;28;20064;-80
2023/01/04 06:31:35;;;;;;;15.85;8.73;;;;;;;4.59;94.74;99102.53;4979315;28;20038;-80
2023/01/04 06:34:01;;;;;;;14.40;8.30;;;;;;;4.61;94.39;99095.44;4978674;28;20080;-80
2023/01/04 06:36:27;;;;;;;16.73;8.98;;;;;;;4.62;94.60;99102.25;4980733;28;20103;-80
2023/01/04 06:38:52;;;;;;;15.15;8.35;;;;;;;4.55;94.17;99100.22;4981707;28;20105;-80
2023/01/04 06:41:18;;;;;;;16.63;8.32;;;;;;;4.60;94.19;99099.00;4977214;28;20046;-80
2023/01/04 06:43:44;;;;;;;16.25;8.63;;;;;;;4.71;94.37;99085.84;4979669;28;20050;-80
2023/01/04 06:46:10;;;;;;;15.43;8.30;;;;;;;4.63;94.14;99089.16;4979366;28;20114;-80
2023/01/04 06:48:35;;;;;;;15.15;7.85;;;;;;;4.76;93.76;99083.66;4978684;28;20034;-80
2023/01/04 06:51:01;;;;;;;14.57;7.82;;;;;;;4.74;93.68;99080.41;4979164;28;20057;-80
2023/01/04 06:53:27;;;;;;;14.60;7.85;;;;;;;4.78;94.17;99066.97;4978137;28;20037;-80
2023/01/04 06:55:52;;;;;;;14.55;7.72;;;;;;;4.87;93.91;99086.13;4978556;28;20051;-80
2023/01/04 06:58:18;;;;;;;16.83;8.27;;;;;;;4.78;93.68;99090.34;4963387;28;20077;-81
2023/01/04 07:00:45;;;;;;;13.70;7.88;;;;;;;4.88;93.65;99092.97;4969537;28;20045;-81
2023/01/04 07:03:10;;;;;;;14.35;8.35;;;;;;;4.92;93.29;99083.09;4979669;28;20037;-80
2023/01/04 07:05:36;;;;;;;16.38;8.15;;;;;;;4.90;93.22;99085.81;4981531;28;20109;-80
2023/01/04 07:08:02;;;;;;;14.10;8.05;;;;;;;4.94;92.79;99071.59;4981440;28;20043;-80
2023/01/04 07:10:28;;;;;;;12.57;7.35;;;;;;;4.98;92.81;99062.56;4985649;28;20038;-80
2023/01/04 07:12:55;;;;;;;13.63;7.43;;;;;;;5.01;92.68;99067.47;4979182;28;20077;-80
2023/01/04 07:15:21;;;;;;;16.25;7.80;;;;;;;4.95;92.77;99057.63;4978119;28;20118;-81
2023/01/04 07:17:49;;;;;;;13.30;6.97;;;;;;;5.03;92.55;99049.94;4976542;28;20056;-80
2023/01/04 07:20:16;;;;;;;13.88;7.63;;;;;;;5.12;92.38;99056.09;4980546;28;20042;-80
2023/01/04 07:22:41;;;;;;;13.48;6.82;;;;;;;5.18;92.08;99052.13;4979248;28;20036;-80
2023/01/04 07:25:08;;;;;;;13.10;7.38;;;;;;;5.15;91.72;99054.97;4978761;28;20030;-80
2023/01/04 07:27:33;;;;;;;16.42;7.63;;;;;;;5.19;91.61;99045.94;4978275;28;20166;-80
2023/01/04 07:29:59;;;;;;;15.35;7.88;;;;;;;5.21;91.35;99042.22;4978782;28;20046;-80
2023/01/04 07:32:25;;;;;;;13.15;7.22;;;;;;;5.24;91.20;99041.97;4983514;28;20042;-81
2023/01/04 07:34:50;;;;;;;15.07;6.93;;;;;;;5.25;90.86;99047.97;4976267;28;20053;-80
2023/01/04 07:37:16;;;;;;;14.98;7.72;;;;;;;5.28;90.85;99052.91;4977994;28;20085;-80
2023/01/04 07:39:43;;;;;;;17.60;8.82;;;;;;;5.33;90.65;99048.06;4979787;28;20089;-80
2023/01/04 07:42:10;;;;;;;16.23;10.55;;;;;;;5.32;90.46;99043.84;4976752;28;20047;-80
2023/01/04 07:44:36;;;;;;;16.25;8.25;;;;;;;5.34;90.44;99040.16;4976417;28;20077;-80
2023/01/04 07:47:02;;;;;;;17.45;8.93;;;;;;;5.40;90.22;99051.78;4977701;28;20531;-81
2023/01/04 07:49:28;;;;;;;17.23;9.73;;;;;;;5.42;90.67;99038.63;4976687;28;20066;-80
2023/01/04 07:51:53;;;;;;;24.27;12.90;;;;;;;5.49;91.08;99035.28;4974604;28;20092;-81
2023/01/04 07:54:19;;;;;;;17.33;9.80;;;;;;;5.49;90.76;99035.28;4978513;28;20031;-84
2023/01/04 07:56:46;;;;;;;15.30;7.93;;;;;;;5.56;90.90;99038.94;4980056;28;20072;-81
2023/01/04 07:59:18;;;;;;;16.77;8.55;;;;;;;5.54;91.59;99037.47;4980290;28;20038;-82
2023/01/04 08:01:44;;;;;;;16.13;8.52;;;;;;;5.53;91.59;99020.22;4969974;28;20097;-81
2023/01/04 08:04:12;;;;;;;14.65;7.57;;;;;;;5.53;91.54;99021.03;4980218;28;20061;-81
2023/01/04 08:06:40;;;;;;;14.10;7.68;;;;;;;5.45;92.11;99013.09;4978475;28;20070;-81
2023/01/04 08:09:06;;;;;;;14.23;7.40;;;;;;;5.53;92.15;99008.03;4979949;28;20038;-88
2023/01/04 08:11:32;;;;;;;15.98;7.95;;;;;;;5.50;92.33;99007.47;4983858;28;20117;-82
2023/01/04 08:13:58;;;;;;;14.90;7.28;;;;;;;5.51;92.55;99004.72;4977186;28;20027;-82
2023/01/04 08:16:30;;;;;;;16.33;7.97;;;;;;;5.62;92.99;99001.94;4979682;28;20113;-82
2023/01/04 08:19:02;;;;;;;15.45;7.50;;;;;;;5.58;93.18;99002.38;4979207;28;20031;-82
2023/01/04 08:21:31;;;;;;;14.73;7.65;;;;;;;5.57;93.47;98993.72;4977383;28;20043;-81
2023/01/04 08:23:57;;;;;;;15.18;8.20;;;;;;;5.63;93.05;98982.75;4977668;28;20463;-82
2023/01/04 08:26:23;;;;;;;16.98;9.25;;;;;;;5.55;93.23;98987.03;4981494;28;20042;-82
2023/01/04 08:28:49;;;;;;;18.92;9.15;;;;;;;5.55;93.55;98987.88;4982017;28;20040;-81
2023/01/04 08:31:21;;;;;;;15.60;7.65;;;;;;;5.53;93.45;98984.59;4982086;28;20263;-81
2023/01/04 08:33:47;;;;;;;;;;;;;;;5.59;93.32;98981.41;4978942;28;20113;-82
2023/01/04 08:36:18;;;;;;;17.15;9.27;;;;;;;5.66;93.16;98979.03;4977933;28;19920;-82
2023/01/04 08:38:45;;;;;;;13.52;7.45;;;;;;;5.68;93.09;98965.88;4980563;28;20066;-82
2023/01/04 08:41:11;;;;;;;19.13;9.80;;;;;;;5.73;93.03;98961.03;4980599;28;20030;-82
2023/01/04 08:43:37;;;;;;;15.85;9.00;;;;;;;5.69;92.95;98944.06;4981506;28;20049;-82
2023/01/04 08:46:04;;;;;;;17.40;9.02;;;;;;;5.68;93.12;98939.84;4979795;28;20030;-82
2023/01/04 08:48:31;;;;;;;17.15;7.80;;;;;;;5.67;93.03;98927.81;4979063;28;20499;-82
2023/01/04 08:50:59;;;;;;;32.90;16.27;;;;;;;5.71;93.36;98929.16;4979170;28;20105;-82
2023/01/04 08:53:25;;;;;;;16.30;8.48;;;;;;;5.86;93.19;98940.66;4980618;28;20035;-82
2023/01/04 08:55:52;;;;;;;16.10;8.13;;;;;;;5.96;92.64;98938.03;4981754;28;20118;-82
2023/01/04 08:58:19;;;;;;;20.58;12.00;;;;;;;6.02;92.36;98933.03;4982976;28;20478;-82
2023/01/04 09:00:44;;;;;;;15.95;8.60;;;;;;;6.05;91.94;98940.53;4980678;28;20027;-82
2023/01/04 09:03:10;;;;;;;14.48;7.68;;;;;;;6.11;91.78;98939.94;4975598;28;20493;-81
2023/01/04 09:05:36;;;;;;;14.35;7.97;;;;;;;6.22;91.32;98951.91;4983265;28;20039;-81
2023/01/04 09:08:02;;;;;;;13.70;7.35;;;;;;;6.23;91.04;98945.72;4980716;28;20045;-82
2023/01/04 09:10:28;;;;;;;12.60;6.80;;;;;;;6.21;90.58;98942.47;4981793;28;20046;-81
2023/01/04 09:12:54;;;;;;;13.35;6.90;;;;;;;6.20;90.80;98945.22;4982268;28;20093;-82
2023/01/04 09:15:20;;;;;;;13.15;7.53;;;;;;;6.27;90.39;98938.44;4982732;28;20042;-82
2023/01/04 09:17:45;;;;;;;12.65;7.00;;;;;;;6.25;90.22;98932.56;4982352;28;20352;-82
2023/01/04 09:20:11;;;;;;;11.50;6.78;;;;;;;6.37;89.81;98944.38;4981068;28;20065;-82
2023/01/04 09:22:37;;;;;;;14.20;6.90;;;;;;;6.32;89.26;98938.81;4989022;28;20036;-82
2023/01/04 09:25:03;;;;;;;13.10;6.68;;;;;;;6.52;88.85;98949.84;4981306;28;20038;-82
2023/01/04 09:27:32;;;;;;;11.95;6.30;;;;;;;6.55;88.08;98942.56;4984184;28;20042;-82
2023/01/04 09:29:58;;;;;;;11.57;5.90;;;;;;;6.66;87.80;98942.31;4980474;28;20039;-82
2023/01/04 09:32:23;;;;;;;11.05;5.75;;;;;;;6.62;87.67;98937.53;4979529;28;20108;-82
2023/01/04 09:34:49;;;;;;;11.10;6.18;;;;;;;6.70;87.49;98943.63;4980425;28;20042;-82
2023/01/04 09:37:14;;;;;;;9.45;5.15;;;;;;;6.79;86.81;98941.06;4978857;28;20037;-82
2023/01/04 09:39:40;;;;;;;9.48;5.05;;;;;;;6.87;86.33;98943.72;4980626;28;20037;-82
2023/01/04 09:42:31;;;;;;;9.13;5.55;;;;;;;7.02;85.95;98943.94;4979407;28;20597;-82
2023/01/04 09:45:21;;;;;;;6.63;4.32;;;;;;;7.16;84.21;98948.59;4978677;28;20035;-82
2023/01/04 09:48:14;;;;;;;8.68;5.10;;;;;;;7.32;84.11;98943.44;4977937;28;20049;-82
2023/01/04 09:50:50;;;;;;;9.13;4.70;;;;;;;7.41;83.06;98941.66;4982988;28;20042;-82
2023/01/04 09:53:45;;;;;;;7.35;4.18;;;;;;;7.47;82.31;98934.00;4982492;28;20107;-82
2023/01/04 09:56:32;;;;;;;5.80;3.72;;;;;;;7.53;81.61;98922.09;4983408;28;20098;-82
2023/01/04 09:59:05;;;;;;;7.90;3.60;;;;;;;7.61;80.84;98924.72;4986266;28;20099;-82
2023/01/04 10:02:14;;;;;;;5.47;3.90;;;;;;;7.57;79.93;98923.44;4979988;28;20047;-81
2023/01/04 10:04:48;;;;;;;3.92;2.40;;;;;;;7.58;79.43;98912.00;4975887;28;20031;-82
2023/01/04 10:07:27;;;;;;;3.50;2.53;;;;;;;7.60;79.11;98930.13;4994605;28;20046;-82
2023/01/04 10:09:54;;;;;;;4.07;2.33;;;;;;;7.61;78.90;98916.91;4980963;28;20486;-82
2023/01/04 10:13:20;;;;;;;4.90;2.15;;;;;;;7.60;78.90;98920.50;4980848;28;20061;-82
2023/01/04 10:16:00;;;;;;;3.35;2.58;;;;;;;7.66;78.49;98925.06;5003366;28;20183;-82
2023/01/04 10:18:47;;;;;;;4.70;2.73;;;;;;;7.67;78.74;98911.03;4981945;28;20117;-82
2023/01/04 10:21:30;;;;;;;3.75;2.40;;;;;;;7.65;78.18;98905.16;4978784;28;20038;-82
2023/01/04 10:24:09;;;;;;;2.72;1.88;;;;;;;7.65;78.39;98902.56;4980220;28;20053;-82
2023/01/04 10:26:48;;;;;;;5.18;2.22;;;;;;;7.64;77.70;98882.66;4979040;28;20031;-82
2023/01/04 10:29:31;;;;;;;3.90;2.55;;;;;;;7.71;78.26;98881.00;4978714;28;20035;-81
2023/01/04 10:32:12;;;;;;;3.85;1.98;;;;;;;7.76;78.44;98883.16;4977307;28;20109;-81
2023/01/04 10:34:44;;;;;;;4.95;1.80;;;;;;;7.76;77.26;98873.53;4977223;28;20052;-81
2023/01/04 10:37:31;;;;;;;3.25;1.67;;;;;;;7.83;78.05;98867.66;4978103;28;20047;-82
2023/01/04 10:39:57;;;;;;;2.55;1.60;;;;;;;7.84;77.24;98854.41;4979417;28;20413;-81
2023/01/04 10:43:03;;;;;;;3.75;1.63;;;;;;;7.98;78.18;98859.00;4978724;28;20031;-82
2023/01/04 10:45:55;;;;;;;1.90;1.20;;;;;;;7.94;77.31;98851.66;4977663;28;20520;-82
2023/01/04 10:48:45;;;;;;;2.25;1.40;;;;;;;8.04;76.55;98841.84;4979077;28;20084;-82
2023/01/04 10:51:16;;;;;;;1.23;1.13;;;;;;;8.04;76.39;98834.03;4979181;28;20044;-82
2023/01/04 10:53:54;;;;;;;1.48;1.35;;;;;;;8.08;76.95;98850.97;4980913;28;20042;-82
2023/01/04 10:56:44;;;;;;;1.30;1.10;;;;;;;8.03;76.33;98843.63;4980145;28;20038;-82
2023/01/04 10:59:39;;;;;;;2.50;1.40;;;;;;;7.98;76.66;98842.50;4983428;28;20037;-82
2023/01/04 11:02:36;;;;;;;1.20;1.10;;;;;;;8.00;77.03;98837.94;4979875;28;20130;-82
2023/01/04 11:05:12;;;;;;;2.00;1.35;;;;;;;7.91;77.10;98828.47;4973430;28;20130;-82
2023/01/04 11:07:51;;;;;;;1.05;0.90;;;;;;;7.92;77.26;98830.94;4981544;28;20089;-82
2023/01/04 11:10:30;;;;;;;1.67;1.30;;;;;;;7.91;76.68;98823.22;4980880;28;20042;-82
2023/01/04 11:12:56;;;;;;;2.05;1.17;;;;;;;7.93;77.13;98818.69;4980452;28;20066;-81
2023/01/04 11:15:22;;;;;;;2.15;1.20;;;;;;;8.01;78.18;98814.25;4980791;28;20045;-81
2023/01/04 11:17:49;;;;;;;1.33;1.15;;;;;;;8.01;77.18;98810.81;4986075;28;20030;-82
2023/01/04 11:20:15;;;;;;;1.48;0.98;;;;;;;8.00;77.44;98822.25;4978844;28;20042;-82
2023/01/04 11:22:56;;;;;;;1.42;1.13;;;;;;;7.98;76.76;98813.78;4978238;28;20084;-82
2023/01/04 11:25:23;;;;;;;1.95;1.20;;;;;;;8.02;77.37;98815.06;4977111;28;20429;-82
2023/01/04 11:28:01;;;;;;;0.90;0.90;;;;;;;7.99;76.94;98812.78;4978148;28;20085;-82
2023/01/04 11:30:52;;;;;;;1.38;1.00;;;;;;;8.03;77.34;98801.00;4977489;28;20041;-82
2023/01/04 11:33:23;;;;;;;1.45;1.20;;;;;;;8.07;76.88;98796.28;4971759;28;20046;-81
2023/01/04 11:35:55;;;;;;;1.73;1.10;;;;;;;8.03;77.01;98783.53;4979459;28;20037;-82
2023/01/04 11:38:29;;;;;;;1.42;1.20;;;;;;;8.16;76.49;98800.53;4976573;28;20034;-82
2023/01/04 11:41:04;;;;;;;0.88;0.88;;;;;;;8.19;76.41;98806.22;4977270;28;20042;-82
2023/01/04 11:43:36;;;;;;;0.75;0.75;;;;;;;8.13;76.18;98793.81;4974414;28;20039;-82
2023/01/04 11:46:17;;;;;;;2.17;1.45;;;;;;;8.22;77.06;98784.19;4975506;28;20570;-82
2023/01/04 11:48:45;;;;;;;1.40;1.17;;;;;;;8.26;76.75;98783.66;4978560;28;20103;-83
2023/01/04 11:51:26;;;;;;;1.75;1.15;;;;;;;8.25;76.71;98779.41;4978644;28;20059;-82
2023/01/04 11:54:17;;;;;;;1.00;0.90;;;;;;;8.27;76.57;98777.44;4981067;28;20045;-83
2023/01/04 11:57:02;;;;;;;1.80;0.90;;;;;;;8.40;76.12;98776.16;4977282;28;20421;-82
2023/01/04 11:59:28;;;;;;;1.25;0.90;;;;;;;8.34;75.17;98761.91;4979474;28;20034;-82
2023/01/04 12:02:22;;;;;;;1.20;1.10;;;;;;;8.45;76.08;98769.41;4974120;28;20407;-83
2023/01/04 12:04:50;;;;;;;1.55;1.10;;;;;;;8.53;75.61;98747.66;4973068;28;20038;-83
2023/01/04 12:07:29;;;;;;;0.80;0.80;;;;;;;8.63;75.50;98744.81;4976421;28;20089;-83
2023/01/04 12:09:56;;;;;;;1.67;0.90;;;;;;;8.60;75.12;98724.25;4972778;28;20118;-83
2023/01/04 12:12:32;;;;;;;2.22;1.10;;;;;;;8.76;75.26;98732.03;4977179;28;20116;-83
2023/01/04 12:15:07;;;;;;;1.17;1.00;;;;;;;8.69;74.61;98728.44;4976731;28;20073;-83
2023/01/04 12:18:02;;;;;;;1.95;0.90;;;;;;;8.68;75.03;98732.06;4971148;28;20038;-83
2023/01/04 12:20:29;;;;;;;1.95;1.20;;;;;;;8.64;74.89;98731.59;4975033;28;20498;-83
2023/01/04 12:22:54;;;;;;;1.95;1.17;;;;;;;8.71;75.65;98727.31;4974510;28;20061;-83
2023/01/04 12:25:23;;;;;;;1.10;1.00;;;;;;;8.72;74.95;98712.41;4975473;28;20502;-83
2023/01/04 12:27:54;;;;;;;2.03;1.20;;;;;;;8.79;75.79;98719.41;4977110;28;20038;-83
2023/01/04 12:30:46;;;;;;;1.33;0.80;;;;;;;8.79;75.57;98724.63;4970261;28;20038;-83
2023/01/04 12:33:32;;;;;;;1.27;0.85;;;;;;;8.77;74.77;98710.91;4976155;28;20046;-83
2023/01/04 12:36:19;;;;;;;0.77;0.73;;;;;;;8.78;74.72;98714.34;4976099;28;20038;-82
2023/01/04 12:38:51;;;;;;;3.40;0.85;;;;;;;8.87;74.19;98720.31;4977539;28;20133;-82
2023/01/04 12:41:32;;;;;;;1.10;0.80;;;;;;;8.90;74.65;98712.16;4973973;28;20134;-82
2023/01/04 12:44:00;;;;;;;2.25;0.90;;;;;;;8.93;74.53;98709.97;4976601;28;20035;-83